Time;durP1;ratioP1;P1;durP2;ratioP2;P2;SDS_P1;SDS_P2;PMS_P1;PMS_P2;Temp;Humidity;BMP_temperature;BMP_pressure;BME280_temperature;BME280_humidity;BME280_pressure;Samples;Min_cycle;Max_cycle;Signal;HPM_P1;HPM_P2
2024/01/11 00:01:21;;;;;;;14.05;13.35;;;-1.70;99.90;;;;;;5139896;27;20223;-64
2024/01/11 00:03:49;;;;;;;14.73;13.93;;;-1.80;99.90;;;;;;5137483;27;20239;-67
2024/01/11 00:06:15;;;;;;;15.98;14.93;;;-1.80;99.90;;;;;;5134725;27;20216;-66
2024/01/11 00:08:42;;;;;;;14.70;13.80;;;-1.80;99.90;;;;;;5133507;27;20629;-64
2024/01/11 00:11:09;;;;;;;14.45;13.55;;;-1.80;99.90;;;;;;5128307;27;20209;-64
2024/01/11 00:13:36;;;;;;;15.13;14.32;;;-1.90;99.90;;;;;;5127653;28;20228;-64
2024/01/11 00:16:02;;;;;;;13.88;13.18;;;-1.90;99.90;;;;;;5130286;27;20201;-66
2024/01/11 00:18:29;;;;;;;14.20;13.50;;;-1.80;99.90;;;;;;5125812;28;20205;-66
2024/01/11 00:20:57;;;;;;;14.10;13.38;;;-1.80;99.90;;;;;;5129955;28;20538;-65
2024/01/11 00:23:24;;;;;;;14.25;13.55;;;-1.80;99.90;;;;;;5125877;27;20666;-65
2024/01/11 00:25:50;;;;;;;14.52;13.82;;;-1.80;99.90;;;;;;5132639;28;20201;-64
2024/01/11 00:28:17;;;;;;;15.02;14.23;;;-1.80;99.90;;;;;;5131224;27;20198;-66
2024/01/11 00:30:44;;;;;;;15.02;14.23;;;-1.80;99.90;;;;;;5131679;27;20214;-66
2024/01/11 00:33:11;;;;;;;14.73;14.02;;;-1.80;99.90;;;;;;5134108;27;20209;-64
2024/01/11 00:35:37;;;;;;;14.23;13.52;;;-1.90;99.90;;;;;;5132368;27;20203;-65
2024/01/11 00:38:06;;;;;;;14.13;13.45;;;-2.10;99.90;;;;;;5129541;27;20208;-66
2024/01/11 00:40:32;;;;;;;14.07;13.38;;;-2.20;99.90;;;;;;5141188;27;20193;-65
2024/01/11 00:42:59;;;;;;;13.70;13.07;;;-2.20;99.90;;;;;;5140125;27;20233;-65
2024/01/11 00:45:26;;;;;;;14.68;13.90;;;-2.20;99.90;;;;;;5137207;27;20207;-64
2024/01/11 00:47:52;;;;;;;14.48;13.77;;;-2.30;99.90;;;;;;5139737;27;20221;-65
2024/01/11 00:50:19;;;;;;;15.50;14.70;;;-2.30;99.90;;;;;;5143877;27;20198;-65
2024/01/11 00:52:46;;;;;;;14.95;14.25;;;-2.30;99.90;;;;;;5150559;27;20238;-65
2024/01/11 00:55:16;;;;;;;14.25;13.55;;;-2.40;99.90;;;;;;5137038;27;20398;-64
2024/01/11 00:57:42;;;;;;;14.75;13.95;;;-2.30;99.90;;;;;;5128264;27;20205;-65
2024/01/11 01:00:12;;;;;;;14.80;14.10;;;-2.30;99.90;;;;;;5128328;27;20208;-66
2024/01/11 01:02:40;;;;;;;14.65;13.95;;;-2.40;99.90;;;;;;5130527;27;20231;-65
2024/01/11 01:05:08;;;;;;;13.57;12.88;;;-2.40;99.90;;;;;;5139498;27;20278;-64
2024/01/11 01:07:34;;;;;;;13.77;13.07;;;-2.30;99.90;;;;;;5139061;27;20288;-65
2024/01/11 01:10:01;;;;;;;13.85;13.25;;;-2.20;99.90;;;;;;5140780;27;20209;-66
2024/01/11 01:12:29;;;;;;;12.73;12.13;;;-2.10;99.90;;;;;;5141108;27;20213;-66
2024/01/11 01:14:56;;;;;;;13.25;12.55;;;-2.10;99.90;;;;;;5142441;27;20204;-66
2024/01/11 01:17:23;;;;;;;13.95;13.15;;;-2.10;99.90;;;;;;5145904;27;20289;-66
2024/01/11 01:19:50;;;;;;;13.48;12.77;;;-2.00;99.90;;;;;;5142936;27;20198;-65
2024/01/11 01:22:16;;;;;;;13.38;12.68;;;-1.90;99.90;;;;;;5139103;27;20265;-64
2024/01/11 01:24:43;;;;;;;14.07;13.30;;;-1.90;99.90;;;;;;5132825;27;20298;-64
2024/01/11 01:27:10;;;;;;;13.98;13.23;;;-2.00;99.90;;;;;;5131575;27;20198;-64
2024/01/11 01:29:38;;;;;;;14.63;13.82;;;-1.90;99.90;;;;;;5132737;27;20315;-65
2024/01/11 01:32:05;;;;;;;14.10;13.40;;;-2.00;99.90;;;;;;5127267;27;20209;-64
2024/01/11 01:34:32;;;;;;;13.50;12.80;;;-1.90;99.90;;;;;;5142518;27;20223;-63
2024/01/11 01:36:59;;;;;;;13.25;12.55;;;-1.90;99.90;;;;;;5134274;27;20198;-65
2024/01/11 01:39:25;;;;;;;13.50;12.80;;;-1.90;99.90;;;;;;5139278;27;20209;-65
2024/01/11 01:41:52;;;;;;;14.52;13.82;;;-1.90;99.90;;;;;;5137247;27;20209;-65
2024/01/11 01:44:19;;;;;;;14.18;13.48;;;-1.90;99.90;;;;;;5135925;27;20217;-65
2024/01/11 01:46:48;;;;;;;13.85;13.15;;;-1.80;99.90;;;;;;5133051;27;20216;-65
2024/01/11 01:49:18;;;;;;;13.80;13.10;;;-1.80;99.90;;;;;;5135079;27;20728;-65
2024/01/11 01:51:44;;;;;;;13.70;13.00;;;-1.80;99.90;;;;;;5130308;27;20213;-65
2024/01/11 01:54:11;;;;;;;13.60;12.93;;;-1.80;99.90;;;;;;5130418;27;20213;-66
2024/01/11 01:56:38;;;;;;;13.45;12.65;;;-1.80;99.90;;;;;;5126648;27;20205;-64
2024/01/11 01:59:05;;;;;;;13.73;13.07;;;-1.80;99.90;;;;;;5126253;27;20205;-65
2024/01/11 02:01:33;;;;;;;14.52;13.73;;;-1.80;99.90;;;;;;5130500;27;20202;-65
2024/01/11 02:04:01;;;;;;;14.93;14.23;;;-1.90;99.90;;;;;;5109393;28;20222;-66
2024/01/11 02:06:31;;;;;;;16.08;15.07;;;-1.90;99.90;;;;;;5110923;28;20280;-65
2024/01/11 02:09:01;;;;;;;14.40;13.70;;;-2.00;99.90;;;;;;5111336;28;20190;-64
2024/01/11 02:11:28;;;;;;;14.32;13.63;;;-2.10;99.90;;;;;;5111192;28;20249;-64
2024/01/11 02:13:57;;;;;;;14.32;13.63;;;-2.10;99.90;;;;;;5112158;28;20217;-66
2024/01/11 02:16:24;;;;;;;15.75;14.73;;;-2.20;99.90;;;;;;5111468;28;20201;-66
2024/01/11 02:18:51;;;;;;;14.40;13.60;;;-2.20;99.90;;;;;;5111322;28;20218;-66
2024/01/11 02:21:19;;;;;;;14.63;13.93;;;-2.30;99.90;;;;;;5112378;28;20202;-66
2024/01/11 02:23:55;;;;;;;15.02;14.15;;;-2.30;99.90;;;;;;5111416;28;20576;-64
2024/01/11 02:26:22;;;;;;;15.32;14.48;;;-2.30;99.90;;;;;;5123314;28;20201;-65
2024/01/11 02:28:49;;;;;;;15.07;14.27;;;-2.30;99.90;;;;;;5123898;28;20210;-66
2024/01/11 02:31:16;;;;;;;15.15;14.35;;;-2.30;99.90;;;;;;5114989;28;20201;-64
2024/01/11 02:33:43;;;;;;;14.65;13.95;;;-2.40;99.90;;;;;;5112454;28;20309;-66
2024/01/11 02:36:10;;;;;;;15.77;14.98;;;-2.40;99.90;;;;;;5111152;28;20594;-65
2024/01/11 02:38:37;;;;;;;14.77;14.00;;;-2.40;99.90;;;;;;5111741;28;20216;-67
2024/01/11 02:41:07;;;;;;;14.63;13.93;;;-2.40;99.90;;;;;;5112969;28;20198;-66
2024/01/11 02:43:35;;;;;;;15.10;14.32;;;-2.40;99.90;;;;;;5112128;28;20611;-66
2024/01/11 02:46:02;;;;;;;15.73;14.93;;;-2.30;99.90;;;;;;5112142;28;20208;-64
2024/01/11 02:48:29;;;;;;;14.65;13.95;;;-2.30;99.90;;;;;;5111673;28;20209;-66
2024/01/11 02:50:57;;;;;;;14.85;14.15;;;-2.20;99.90;;;;;;5111815;28;20202;-65
2024/01/11 02:53:24;;;;;;;15.48;14.68;;;-2.20;99.90;;;;;;5112098;28;20217;-65
2024/01/11 02:55:51;;;;;;;15.25;14.45;;;-2.20;99.90;;;;;;5108944;28;20258;-65
2024/01/11 02:58:19;;;;;;;15.25;14.45;;;-2.20;99.90;;;;;;5115079;28;20213;-64
2024/01/11 03:00:46;;;;;;;14.52;13.82;;;-2.30;99.90;;;;;;5114857;28;20601;-64
2024/01/11 03:03:12;;;;;;;14.68;13.98;;;-2.20;99.90;;;;;;5117005;28;20218;-64
2024/01/11 03:05:39;;;;;;;13.63;12.93;;;-2.20;99.90;;;;;;5120778;28;20225;-65
2024/01/11 03:08:06;;;;;;;13.57;12.88;;;-2.20;99.90;;;;;;5118363;28;20649;-64
2024/01/11 03:10:33;;;;;;;14.55;13.82;;;-2.20;99.90;;;;;;5114781;28;20229;-63
2024/01/11 03:12:59;;;;;;;13.80;13.10;;;-2.20;99.90;;;;;;5112548;28;20218;-65
2024/01/11 03:15:27;;;;;;;14.70;13.90;;;-2.20;99.90;;;;;;5111974;28;20202;-66
2024/01/11 03:17:54;;;;;;;13.77;13.07;;;-2.10;99.90;;;;;;5110560;28;20213;-65
2024/01/11 03:20:24;;;;;;;14.30;13.55;;;-2.10;99.90;;;;;;5111742;28;20198;-65
2024/01/11 03:22:51;;;;;;;14.38;13.68;;;-2.10;99.90;;;;;;5108600;28;20226;-66
2024/01/11 03:25:18;;;;;;;14.80;14.00;;;-2.20;99.90;;;;;;5111242;28;20221;-64
2024/01/11 03:27:44;;;;;;;14.05;13.35;;;-2.20;99.90;;;;;;5112193;28;20213;-65
2024/01/11 03:30:12;;;;;;;15.18;14.38;;;-2.30;99.90;;;;;;5118790;28;20198;-65
2024/01/11 03:32:40;;;;;;;15.35;14.55;;;-2.40;99.90;;;;;;5119362;28;20232;-66
2024/01/11 03:35:08;;;;;;;14.40;13.63;;;-2.40;99.90;;;;;;5117604;28;20206;-65
2024/01/11 03:37:35;;;;;;;14.32;13.63;;;-2.40;99.90;;;;;;5112326;28;20560;-66
2024/01/11 03:40:03;;;;;;;15.68;14.88;;;-2.40;99.90;;;;;;5112041;28;20251;-66
2024/01/11 03:42:30;;;;;;;15.32;14.52;;;-2.40;99.90;;;;;;5111569;28;20194;-64
2024/01/11 03:44:57;;;;;;;15.15;14.35;;;-2.40;99.90;;;;;;5111514;28;20248;-65
2024/01/11 03:47:24;;;;;;;15.87;14.90;;;-2.40;99.90;;;;;;5110117;28;20691;-65
2024/01/11 03:49:52;;;;;;;15.43;14.63;;;-2.40;99.90;;;;;;5111670;28;20235;-64
2024/01/11 03:52:19;;;;;;;14.68;13.98;;;-2.40;99.90;;;;;;5109523;28;20684;-63
2024/01/11 03:54:45;;;;;;;15.15;14.35;;;-2.40;99.90;;;;;;5111552;28;20209;-67
2024/01/11 03:57:12;;;;;;;15.27;14.48;;;-2.40;99.90;;;;;;5110806;28;20231;-66
2024/01/11 03:59:39;;;;;;;15.63;14.82;;;-2.50;99.90;;;;;;5110885;28;20205;-63
2024/01/11 04:02:06;;;;;;;15.13;14.32;;;-2.50;99.90;;;;;;5111458;28;20576;-63
2024/01/11 04:04:33;;;;;;;15.70;14.90;;;-2.50;99.90;;;;;;5109889;28;20675;-64
2024/01/11 04:07:02;;;;;;;16.23;15.32;;;-2.50;99.90;;;;;;5111037;28;20202;-65
2024/01/11 04:09:28;;;;;;;15.73;15.00;;;-2.50;99.90;;;;;;5111233;28;20206;-65
2024/01/11 04:11:55;;;;;;;15.43;14.63;;;-2.50;99.90;;;;;;5111013;28;20212;-65
2024/01/11 04:14:22;;;;;;;15.10;14.30;;;-2.50;99.90;;;;;;5113559;28;20232;-65
2024/01/11 04:16:48;;;;;;;15.82;15.02;;;-2.50;99.90;;;;;;5114527;28;20198;-65
2024/01/11 04:19:15;;;;;;;15.25;14.45;;;-2.50;99.90;;;;;;5114695;28;20201;-65
2024/01/11 04:21:42;;;;;;;16.08;15.27;;;-2.40;99.90;;;;;;5114468;28;20202;-64
2024/01/11 04:24:10;;;;;;;16.25;15.35;;;-2.40;99.90;;;;;;5115122;28;20241;-65
2024/01/11 04:26:37;;;;;;;15.35;14.55;;;-2.40;99.90;;;;;;5114641;27;20210;-64
2024/01/11 04:29:03;;;;;;;14.50;13.77;;;-2.30;99.90;;;;;;5115354;28;20198;-65
2024/01/11 04:31:30;;;;;;;14.65;13.95;;;-2.30;99.90;;;;;;5124233;28;20206;-66
2024/01/11 04:33:57;;;;;;;14.20;13.50;;;-2.30;99.90;;;;;;5123979;28;20222;-66
2024/01/11 04:36:24;;;;;;;16.35;15.35;;;-2.20;99.90;;;;;;5125601;28;20202;-65
2024/01/11 04:38:50;;;;;;;13.45;12.85;;;-2.30;99.90;;;;;;5115691;28;20210;-65
2024/01/11 04:41:19;;;;;;;14.73;14.02;;;-2.30;99.90;;;;;;5116528;28;20205;-64
2024/01/11 04:43:45;;;;;;;14.98;14.18;;;-2.30;99.90;;;;;;5115358;28;20222;-64
2024/01/11 04:46:16;;;;;;;14.82;14.02;;;-2.30;99.90;;;;;;5114795;28;20233;-64
2024/01/11 04:48:43;;;;;;;14.70;14.00;;;-2.40;99.90;;;;;;5114252;28;20209;-65
2024/01/11 04:51:10;;;;;;;14.75;13.98;;;-2.40;99.90;;;;;;5113581;28;20205;-65
2024/01/11 04:53:38;;;;;;;15.27;14.48;;;-2.40;99.90;;;;;;5114810;28;20230;-66
2024/01/11 04:56:07;;;;;;;15.48;14.68;;;-2.40;99.90;;;;;;5114458;28;20198;-66
2024/01/11 04:58:35;;;;;;;16.58;15.68;;;-2.50;99.90;;;;;;5113877;28;20205;-64
2024/01/11 05:01:02;;;;;;;16.38;15.57;;;-2.60;99.90;;;;;;5122763;27;20887;-67
2024/01/11 05:03:29;;;;;;;16.20;15.40;;;-2.70;99.90;;;;;;5129558;27;20738;-64
2024/01/11 05:05:55;;;;;;;17.65;16.75;;;-2.80;99.90;;;;;;5126367;27;20228;-63
2024/01/11 05:08:22;;;;;;;16.77;15.98;;;-2.90;99.90;;;;;;5128501;27;20205;-64
2024/01/11 05:10:49;;;;;;;16.42;15.63;;;-2.90;99.90;;;;;;5128997;27;20205;-64
2024/01/11 05:13:16;;;;;;;15.52;14.73;;;-3.00;99.90;;;;;;5134596;27;20217;-65
2024/01/11 05:15:44;;;;;;;16.67;15.77;;;-2.90;99.90;;;;;;5133911;27;20197;-65
2024/01/11 05:18:11;;;;;;;16.17;15.35;;;-2.80;99.90;;;;;;5128151;27;20237;-67
2024/01/11 05:20:38;;;;;;;16.63;15.73;;;-2.90;99.90;;;;;;5131450;27;20213;-64
2024/01/11 05:23:05;;;;;;;16.33;15.52;;;-2.90;99.90;;;;;;5129360;27;20225;-64
2024/01/11 05:25:33;;;;;;;15.45;14.73;;;-2.90;99.90;;;;;;5124508;27;20228;-66
2024/01/11 05:28:00;;;;;;;15.68;14.98;;;-2.90;99.90;;;;;;5129619;27;20202;-66
2024/01/11 05:30:27;;;;;;;15.60;14.80;;;-2.90;99.90;;;;;;5133507;27;20216;-63
2024/01/11 05:32:55;;;;;;;15.55;14.80;;;-2.90;99.90;;;;;;5139635;27;20632;-65
2024/01/11 05:35:23;;;;;;;16.23;15.43;;;-2.90;99.90;;;;;;5134138;27;20202;-64
2024/01/11 05:37:50;;;;;;;16.55;15.75;;;-2.90;99.90;;;;;;5135315;27;20201;-65
2024/01/11 05:40:17;;;;;;;15.27;14.48;;;-2.90;99.90;;;;;;5131017;27;20228;-66
2024/01/11 05:42:44;;;;;;;15.65;14.88;;;-2.80;99.90;;;;;;5128655;27;20228;-66
2024/01/11 05:45:11;;;;;;;14.38;13.68;;;-2.80;99.90;;;;;;5126693;27;20842;-65
2024/01/11 05:47:37;;;;;;;15.43;14.63;;;-2.80;99.90;;;;;;5128155;27;20660;-64
2024/01/11 05:50:07;;;;;;;15.55;14.75;;;-2.80;99.90;;;;;;5131120;27;20227;-65
2024/01/11 05:52:33;;;;;;;15.10;14.30;;;-2.80;99.90;;;;;;5129875;27;20240;-66
2024/01/11 05:55:00;;;;;;;15.55;14.68;;;-2.80;99.90;;;;;;5131437;27;20200;-65
2024/01/11 05:57:27;;;;;;;15.48;14.63;;;-2.70;99.90;;;;;;5123610;27;20750;-67
2024/01/11 05:59:53;;;;;;;15.18;14.43;;;-2.70;99.90;;;;;;5124039;27;20201;-64
2024/01/11 06:02:22;;;;;;;15.35;14.55;;;-2.60;99.90;;;;;;5127304;27;20201;-67
2024/01/11 06:04:49;;;;;;;15.00;14.20;;;-2.60;99.90;;;;;;5128250;27;20225;-65
2024/01/11 06:07:17;;;;;;;14.07;13.38;;;-2.60;99.90;;;;;;5128276;27;20194;-64
2024/01/11 06:09:44;;;;;;;16.98;16.08;;;-2.60;99.90;;;;;;5128314;27;20201;-64
2024/01/11 06:12:11;;;;;;;16.98;16.08;;;-2.60;99.90;;;;;;5128454;27;20213;-65
2024/01/11 06:14:37;;;;;;;16.20;15.40;;;-2.70;99.90;;;;;;5124421;27;20237;-66
2024/01/11 06:17:04;;;;;;;18.83;17.73;;;-2.70;99.90;;;;;;5126093;27;20292;-64
2024/01/11 06:19:31;;;;;;;17.50;16.50;;;-2.80;99.90;;;;;;5129119;27;20202;-65
2024/01/11 06:21:58;;;;;;;17.40;16.48;;;-2.90;99.90;;;;;;5128098;27;20223;-64
2024/01/11 06:24:26;;;;;;;17.20;16.27;;;-2.90;99.90;;;;;;5128237;27;20232;-64
2024/01/11 06:26:53;;;;;;;17.85;16.85;;;-3.00;99.90;;;;;;5127337;27;20209;-67
2024/01/11 06:29:19;;;;;;;17.33;16.42;;;-3.10;99.90;;;;;;5126367;27;20197;-65
2024/01/11 06:31:46;;;;;;;15.57;14.77;;;-3.10;99.90;;;;;;5128441;27;20212;-64
2024/01/11 06:34:13;;;;;;;14.90;14.20;;;-3.20;99.90;;;;;;5124556;27;20724;-65
2024/01/11 06:36:39;;;;;;;15.15;14.45;;;-3.10;99.90;;;;;;5125780;27;20664;-65
2024/01/11 06:39:06;;;;;;;16.88;15.98;;;-3.20;99.90;;;;;;5124539;27;20209;-64
2024/01/11 06:41:34;;;;;;;15.00;14.30;;;-3.20;99.90;;;;;;5123541;27;20213;-67
2024/01/11 06:44:01;;;;;;;15.45;14.65;;;-3.20;99.90;;;;;;5125453;27;20222;-65
2024/01/11 06:46:28;;;;;;;16.42;15.45;;;-3.10;99.90;;;;;;5121242;27;20229;-66
2024/01/11 06:48:54;;;;;;;15.82;14.98;;;-3.10;99.90;;;;;;5126454;27;20208;-65
2024/01/11 06:51:22;;;;;;;16.30;15.40;;;-3.10;99.90;;;;;;5123739;27;20208;-64
2024/01/11 06:53:49;;;;;;;14.90;14.10;;;-3.20;99.90;;;;;;5123403;27;20216;-64
2024/01/11 06:56:19;;;;;;;17.53;16.33;;;-3.20;99.90;;;;;;5120820;27;20201;-64
2024/01/11 06:58:48;;;;;;;15.00;14.23;;;-3.20;99.90;;;;;;5123035;27;20205;-66
2024/01/11 07:01:15;;;;;;;15.88;14.98;;;-3.20;99.90;;;;;;5121232;27;20620;-66
2024/01/11 07:03:41;;;;;;;15.27;14.50;;;-3.20;99.90;;;;;;5123555;27;20641;-64
2024/01/11 07:06:09;;;;;;;14.73;13.93;;;-3.20;99.90;;;;;;5124089;27;20225;-64
2024/01/11 07:08:36;;;;;;;16.48;15.45;;;-3.20;99.90;;;;;;5121105;27;20210;-66
2024/01/11 07:11:03;;;;;;;15.95;14.95;;;-3.20;99.90;;;;;;5116634;27;20291;-65
2024/01/11 07:13:31;;;;;;;16.33;15.27;;;-3.20;99.90;;;;;;5120861;27;20651;-65
2024/01/11 07:15:59;;;;;;;15.35;14.52;;;-3.10;99.90;;;;;;5124030;27;20197;-66
2024/01/11 07:18:26;;;;;;;15.05;14.25;;;-3.00;99.90;;;;;;5125674;27;20214;-65
2024/01/11 07:20:53;;;;;;;15.68;14.88;;;-3.00;99.90;;;;;;5124297;27;20206;-65
2024/01/11 07:23:20;;;;;;;15.50;14.63;;;-2.90;99.90;;;;;;5122623;27;20221;-65
2024/01/11 07:25:47;;;;;;;15.20;14.38;;;-2.90;99.90;;;;;;5127294;27;20225;-66
2024/01/11 07:28:14;;;;;;;15.05;14.35;;;-2.90;99.90;;;;;;5116492;27;20210;-65
2024/01/11 07:30:40;;;;;;;16.00;15.18;;;-2.90;99.90;;;;;;5119437;27;20751;-65
2024/01/11 07:33:09;;;;;;;15.90;15.10;;;-2.90;99.90;;;;;;5124761;27;20232;-66
2024/01/11 07:35:35;;;;;;;16.70;15.80;;;-2.90;99.90;;;;;;5130005;27;20204;-65
2024/01/11 07:38:02;;;;;;;18.90;17.80;;;-3.00;99.90;;;;;;5125429;27;20205;-65
2024/01/11 07:40:29;;;;;;;17.23;16.30;;;-3.00;99.90;;;;;;5125591;27;20205;-65
2024/01/11 07:42:56;;;;;;;18.40;17.30;;;-3.10;99.90;;;;;;5125109;27;20772;-65
2024/01/11 07:45:23;;;;;;;16.67;15.77;;;-3.10;99.90;;;;;;5126703;28;20220;-66
2024/01/11 07:47:49;;;;;;;15.57;14.77;;;-3.00;99.90;;;;;;5122675;27;20201;-66
2024/01/11 07:50:18;;;;;;;15.85;15.05;;;-2.90;99.90;;;;;;5133611;27;20687;-66
2024/01/11 07:52:45;;;;;;;17.05;16.10;;;-2.80;99.90;;;;;;5132674;27;20225;-65
2024/01/11 07:55:12;;;;;;;16.35;15.55;;;-2.70;99.90;;;;;;5134427;27;20221;-65
2024/01/11 07:57:39;;;;;;;15.63;14.82;;;-2.90;99.90;;;;;;5140082;27;20209;-65
2024/01/11 08:00:07;;;;;;;17.25;16.30;;;-2.90;99.90;;;;;;5143390;27;20208;-65
2024/01/11 08:02:34;;;;;;;17.55;16.55;;;-2.80;99.90;;;;;;5142676;27;20220;-66
2024/01/11 08:05:01;;;;;;;17.52;16.63;;;-2.80;99.90;;;;;;5133196;27;20233;-67
2024/01/11 08:07:30;;;;;;;17.50;16.50;;;-2.80;99.90;;;;;;5133680;27;20768;-64
2024/01/11 08:09:57;;;;;;;16.13;15.30;;;-2.80;99.90;;;;;;5133406;27;20265;-65
2024/01/11 08:12:23;;;;;;;17.90;17.00;;;-2.70;99.90;;;;;;5133834;27;20197;-65
2024/01/11 08:14:50;;;;;;;18.70;17.70;;;-2.60;99.90;;;;;;5130241;27;20208;-66
2024/01/11 08:17:17;;;;;;;17.98;16.98;;;-2.80;99.90;;;;;;5135007;27;20209;-66
2024/01/11 08:19:43;;;;;;;19.15;17.90;;;-2.80;99.90;;;;;;5134478;27;20205;-64
2024/01/11 08:22:11;;;;;;;18.10;17.00;;;-2.80;99.90;;;;;;5133745;27;20198;-66
2024/01/11 08:24:39;;;;;;;18.55;17.60;;;-2.80;99.90;;;;;;5130873;27;20229;-65
2024/01/11 08:27:06;;;;;;;17.48;16.58;;;-2.90;99.90;;;;;;5131637;27;20222;-65
2024/01/11 08:29:34;;;;;;;18.08;17.08;;;-2.90;99.90;;;;;;5132352;27;20213;-64
2024/01/11 08:32:03;;;;;;;18.55;17.45;;;-2.70;99.90;;;;;;5131469;27;20205;-66
2024/01/11 08:34:30;;;;;;;17.58;16.67;;;-2.60;99.90;;;;;;5134800;27;20252;-65
2024/01/11 08:36:57;;;;;;;18.70;17.60;;;-2.50;99.90;;;;;;5133890;27;20198;-64
2024/01/11 08:39:24;;;;;;;17.52;16.52;;;-2.50;99.90;;;;;;5132464;27;20197;-65
2024/01/11 08:41:52;;;;;;;17.25;16.35;;;-2.50;99.90;;;;;;5131729;27;20205;-65
2024/01/11 08:44:19;;;;;;;16.13;15.32;;;-2.40;99.90;;;;;;5133470;27;20462;-66
2024/01/11 08:46:45;;;;;;;17.55;16.55;;;-2.40;99.90;;;;;;5134267;27;20225;-65
2024/01/11 08:49:12;;;;;;;17.13;16.23;;;-2.40;99.90;;;;;;5137307;27;20202;-66
2024/01/11 08:51:39;;;;;;;16.55;15.63;;;-2.40;99.90;;;;;;5138397;27;20201;-64
2024/01/11 08:54:08;;;;;;;16.35;15.52;;;-2.30;99.90;;;;;;5135957;27;20225;-65
2024/01/11 08:56:35;;;;;;;17.35;16.20;;;-2.10;99.90;;;;;;5140324;27;20209;-65
2024/01/11 08:59:03;;;;;;;16.55;15.63;;;-2.10;99.90;;;;;;5134932;27;20201;-66
2024/01/11 09:01:30;;;;;;;16.95;15.98;;;-2.20;99.90;;;;;;5133390;27;20204;-64
2024/01/11 09:03:57;;;;;;;16.02;15.02;;;-2.10;99.90;;;;;;5124493;27;20225;-65
2024/01/11 09:06:24;;;;;;;16.33;15.27;;;-1.90;99.90;;;;;;5126279;27;20223;-65
2024/01/11 09:08:52;;;;;;;14.05;13.35;;;-1.70;99.90;;;;;;5131328;27;20695;-66
2024/01/11 09:11:19;;;;;;;15.70;14.88;;;-1.50;99.90;;;;;;5125629;27;20206;-64
2024/01/11 09:13:46;;;;;;;15.27;14.38;;;-1.40;99.90;;;;;;5131633;27;20592;-64
2024/01/11 09:16:17;;;;;;;15.23;14.40;;;-1.20;99.90;;;;;;5123982;27;20200;-65
2024/01/11 09:18:44;;;;;;;15.30;14.50;;;-1.10;99.90;;;;;;5133903;27;20262;-64
2024/01/11 09:21:12;;;;;;;15.82;14.98;;;-1.00;99.90;;;;;;5125497;27;20209;-67
2024/01/11 09:23:38;;;;;;;15.05;14.25;;;-0.80;99.90;;;;;;5128145;27;20680;-65
2024/01/11 09:26:06;;;;;;;14.57;13.82;;;-0.70;99.90;;;;;;5128733;27;20232;-66
2024/01/11 09:28:32;;;;;;;14.97;14.17;;;-0.50;99.90;;;;;;5125597;27;20201;-63
2024/01/11 09:31:01;;;;;;;15.75;14.95;;;-0.30;99.90;;;;;;5131636;27;20292;-65
2024/01/11 09:33:29;;;;;;;15.20;14.50;;;-0.30;99.90;;;;;;5124789;27;20222;-65
2024/01/11 09:35:56;;;;;;;16.63;15.73;;;-0.10;99.90;;;;;;5130930;27;20212;-69
2024/01/11 09:38:23;;;;;;;16.77;15.87;;;-0.10;99.90;;;;;;5129073;27;20250;-64
2024/01/11 09:41:02;;;;;;;18.13;17.13;;;0.00;99.90;;;;;;5126037;27;20637;-65
2024/01/11 09:43:28;;;;;;;18.40;17.50;;;0.00;99.90;;;;;;5115990;27;20225;-65
2024/01/11 09:45:56;;;;;;;18.83;17.93;;;0.10;99.90;;;;;;5115395;27;20225;-65
2024/01/11 09:48:25;;;;;;;17.52;16.73;;;0.00;99.90;;;;;;5110721;27;20203;-66
2024/01/11 09:50:54;;;;;;;18.70;17.75;;;-0.20;99.90;;;;;;5111961;27;20254;-64
2024/01/11 09:53:23;;;;;;;22.85;21.23;;;-0.40;99.90;;;;;;5111006;27;20232;-64
2024/01/11 09:55:50;;;;;;;19.13;18.13;;;-0.40;99.90;;;;;;5113428;27;20206;-64
2024/01/11 09:58:17;;;;;;;17.95;17.05;;;-0.40;99.90;;;;;;5108506;27;20288;-65
2024/01/11 10:00:45;;;;;;;18.17;17.17;;;-0.50;99.90;;;;;;5110564;28;20231;-65
2024/01/11 10:03:12;;;;;;;17.58;16.67;;;-0.30;99.90;;;;;;5124793;27;20232;-66
2024/01/11 10:05:40;;;;;;;17.03;16.13;;;-0.30;99.90;;;;;;5117158;27;20209;-65
2024/01/11 10:08:09;;;;;;;17.70;16.80;;;-0.30;99.90;;;;;;5112314;27;20206;-65
2024/01/11 10:10:36;;;;;;;17.50;16.60;;;-0.30;99.90;;;;;;5110613;28;20590;-67
2024/01/11 10:13:02;;;;;;;17.75;16.85;;;-0.40;99.90;;;;;;5112081;27;20225;-66
2024/01/11 10:15:29;;;;;;;17.20;16.30;;;-0.30;99.90;;;;;;5124070;27;20446;-66
2024/01/11 10:17:56;;;;;;;16.90;16.00;;;-0.30;99.90;;;;;;5123353;27;20206;-66
2024/01/11 10:20:23;;;;;;;17.08;16.17;;;-0.30;99.90;;;;;;5124516;27;20205;-66
2024/01/11 10:22:52;;;;;;;17.42;16.52;;;-0.30;99.90;;;;;;5123420;28;20233;-66
2024/01/11 10:25:20;;;;;;;15.93;15.10;;;-0.60;99.90;;;;;;5119668;28;20217;-66
2024/01/11 10:27:47;;;;;;;15.82;15.02;;;-0.60;99.90;;;;;;5111266;27;20220;-66
2024/01/11 10:30:16;;;;;;;17.00;16.17;;;-0.50;99.90;;;;;;5117012;27;20209;-66
2024/01/11 10:32:44;;;;;;;18.10;17.13;;;-0.40;99.90;;;;;;5114382;27;20692;-64
2024/01/11 10:35:10;;;;;;;18.90;17.80;;;-0.30;99.90;;;;;;5113895;27;20569;-66
2024/01/11 10:37:39;;;;;;;17.55;16.75;;;-0.20;99.90;;;;;;5110482;27;20214;-66
2024/01/11 10:40:10;;;;;;;19.10;18.10;;;0.00;99.90;;;;;;5114877;27;20212;-65
2024/01/11 10:42:42;;;;;;;19.50;18.40;;;0.00;99.90;;;;;;5111447;27;20309;-66
2024/01/11 10:45:14;;;;;;;18.88;17.88;;;-0.20;99.90;;;;;;5114415;27;20198;-65
2024/01/11 10:47:51;;;;;;;17.92;16.92;;;-0.40;99.90;;;;;;5108248;28;20217;-65
2024/01/11 10:50:19;;;;;;;16.77;15.93;;;-0.40;99.90;;;;;;5111551;27;20205;-66
2024/01/11 10:52:57;;;;;;;17.08;16.27;;;-0.40;99.90;;;;;;5118921;27;20225;-65
2024/01/11 10:55:24;;;;;;;17.80;16.83;;;-0.30;99.90;;;;;;5111962;27;20228;-66
2024/01/11 10:57:54;;;;;;;17.42;16.50;;;-0.20;99.90;;;;;;5109996;27;20277;-64
2024/01/11 11:00:22;;;;;;;19.25;18.20;;;-0.10;99.90;;;;;;5108580;27;20292;-64
2024/01/11 11:02:50;;;;;;;19.90;18.85;;;0.00;99.90;;;;;;5112962;27;20258;-66
2024/01/11 11:05:20;;;;;;;19.45;18.50;;;0.00;99.90;;;;;;5107378;28;20205;-64
2024/01/11 11:07:49;;;;;;;18.65;17.65;;;-0.10;99.90;;;;;;5114401;27;20275;-64
2024/01/11 11:10:17;;;;;;;18.42;17.48;;;-0.10;99.90;;;;;;5114097;27;20700;-65
2024/01/11 11:12:46;;;;;;;19.83;18.73;;;0.00;99.90;;;;;;5113111;27;20232;-65
2024/01/11 11:15:15;;;;;;;19.27;18.27;;;0.00;99.90;;;;;;5112543;27;20230;-66
2024/01/11 11:17:43;;;;;;;19.05;18.15;;;0.10;99.90;;;;;;5111916;27;20233;-66
2024/01/11 11:20:12;;;;;;;20.00;18.95;;;0.00;99.90;;;;;;5118556;27;20202;-65
2024/01/11 11:22:41;;;;;;;18.85;17.95;;;0.20;99.90;;;;;;5114400;27;20274;-64
2024/01/11 11:25:10;;;;;;;19.08;18.08;;;0.40;99.90;;;;;;5108474;27;20680;-64
2024/01/11 11:27:36;;;;;;;18.98;17.98;;;0.60;99.90;;;;;;5111589;28;20222;-66
2024/01/11 11:30:05;;;;;;;17.77;16.88;;;0.70;99.90;;;;;;5110543;27;20209;-66
2024/01/11 11:32:43;;;;;;;18.23;17.23;;;0.60;99.90;;;;;;5109018;28;20359;-64
2024/01/11 11:35:10;;;;;;;18.73;17.83;;;0.40;99.90;;;;;;5113621;27;20228;-65
2024/01/11 11:37:38;;;;;;;19.55;18.50;;;0.30;99.90;;;;;;5125523;28;20208;-66
2024/01/11 11:40:06;;;;;;;18.55;17.55;;;0.30;99.90;;;;;;5122117;27;20201;-66
2024/01/11 11:42:35;;;;;;;18.92;18.02;;;0.10;99.90;;;;;;5115311;28;20210;-65
2024/01/11 11:45:02;;;;;;;18.80;17.90;;;0.10;99.90;;;;;;5119264;27;20201;-65
2024/01/11 11:47:34;;;;;;;20.07;18.97;;;0.20;99.90;;;;;;5121935;28;20229;-65
2024/01/11 11:50:08;;;;;;;20.05;19.05;;;0.30;99.90;;;;;;5113773;28;20213;-65
2024/01/11 11:52:35;;;;;;;19.92;18.92;;;0.40;99.90;;;;;;5115493;28;21061;-64
2024/01/11 11:55:03;;;;;;;20.27;19.17;;;0.30;99.90;;;;;;5113459;28;20231;-65
2024/01/11 11:57:30;;;;;;;19.80;18.80;;;0.40;99.90;;;;;;5110403;28;20665;-64
2024/01/11 11:59:58;;;;;;;19.33;18.42;;;0.50;99.90;;;;;;5108091;28;20385;-65
2024/01/11 12:02:26;;;;;;;19.88;18.88;;;0.50;99.90;;;;;;5109467;28;20258;-66
2024/01/11 12:04:53;;;;;;;18.90;17.90;;;0.50;99.90;;;;;;5109017;28;20213;-65
2024/01/11 12:07:22;;;;;;;18.65;17.75;;;0.60;99.90;;;;;;5108030;28;20241;-65
2024/01/11 12:09:49;;;;;;;18.65;17.73;;;0.60;99.90;;;;;;5114811;28;20217;-65
2024/01/11 12:12:17;;;;;;;17.98;17.08;;;0.70;99.90;;;;;;5116042;28;20213;-65
2024/01/11 12:14:46;;;;;;;17.30;16.33;;;0.90;99.90;;;;;;5106496;28;20967;-65
2024/01/11 12:17:12;;;;;;;17.13;16.30;;;1.00;99.90;;;;;;5107638;28;20206;-66
2024/01/11 12:19:39;;;;;;;15.63;14.82;;;1.10;99.90;;;;;;5117389;28;20204;-65
2024/01/11 12:22:06;;;;;;;16.23;15.43;;;1.10;99.90;;;;;;5104740;28;20657;-65
2024/01/11 12:24:34;;;;;;;16.47;15.50;;;1.10;99.90;;;;;;5110399;28;20225;-64
2024/01/11 12:27:02;;;;;;;16.83;16.03;;;1.10;99.90;;;;;;5117964;28;20225;-65
2024/01/11 12:29:30;;;;;;;15.60;14.80;;;1.20;99.90;;;;;;5117179;28;20198;-64